Time;durP1;ratioP1;P1;durP2;ratioP2;P2;SDS_P1;SDS_P2;PMS_P1;PMS_P2;Temp;Humidity;BMP_temperature;BMP_pressure;BME280_temperature;BME280_humidity;BME280_pressure;Samples;Min_cycle;Max_cycle;Signal;HPM_P1;HPM_P2
2022/11/27 00:00:20;;;;;;;43.17;21.53;;;2.60;96.60;;;;;;5036457;28;20213;-75
2022/11/27 00:02:46;;;;;;;37.57;19.63;;;2.60;96.60;;;;;;5038179;28;20197;-74
2022/11/27 00:05:11;;;;;;;38.70;19.87;;;2.70;96.60;;;;;;5038943;28;20189;-75
2022/11/27 00:07:37;;;;;;;42.07;20.30;;;2.60;96.60;;;;;;5042046;28;20220;-73
2022/11/27 00:10:03;;;;;;;40.67;18.97;;;2.60;96.60;;;;;;5043247;28;20279;-72
2022/11/27 00:12:30;;;;;;;37.97;20.60;;;2.60;96.60;;;;;;5037988;28;20216;-73
2022/11/27 00:14:56;;;;;;;35.17;19.55;;;2.60;96.40;;;;;;5031938;28;20771;-72
2022/11/27 00:17:21;;;;;;;35.20;18.13;;;2.50;96.40;;;;;;5031169;28;20204;-73
2022/11/27 00:19:47;;;;;;;34.20;19.43;;;2.60;96.40;;;;;;5026671;28;20213;-73
2022/11/27 00:22:12;;;;;;;40.77;18.40;;;2.50;96.40;;;;;;5030635;28;20181;-72
2022/11/27 00:24:38;;;;;;;32.73;17.27;;;2.50;96.40;;;;;;5044479;28;20181;-73
2022/11/27 00:27:04;;;;;;;32.27;17.23;;;2.60;96.60;;;;;;5031005;28;20213;-74
2022/11/27 00:29:30;;;;;;;33.43;17.30;;;2.60;96.60;;;;;;5027959;28;21048;-73
2022/11/27 00:31:56;;;;;;;32.53;18.13;;;2.60;96.40;;;;;;5028558;28;20239;-73
2022/11/27 00:34:22;;;;;;;29.17;16.57;;;2.60;96.40;;;;;;5030991;28;20456;-74
2022/11/27 00:36:47;;;;;;;30.43;17.40;;;2.60;96.30;;;;;;5036193;28;20438;-73
2022/11/27 00:39:13;;;;;;;35.87;19.33;;;2.60;96.20;;;;;;5033164;28;20656;-74
2022/11/27 00:41:38;;;;;;;35.40;17.47;;;2.60;96.20;;;;;;5029950;28;20559;-73
2022/11/27 00:44:05;;;;;;;30.00;16.23;;;2.50;96.10;;;;;;5032240;28;20239;-74
2022/11/27 00:46:32;;;;;;;26.58;16.45;;;2.50;96.10;;;;;;5031631;28;20216;-74
2022/11/27 00:49:00;;;;;;;35.53;19.10;;;2.60;96.10;;;;;;5032354;28;20181;-74
2022/11/27 00:51:27;;;;;;;27.00;15.40;;;2.60;96.10;;;;;;5029409;28;20464;-73
2022/11/27 00:53:53;;;;;;;31.57;17.60;;;2.60;96.00;;;;;;5032082;28;20422;-74
2022/11/27 00:56:24;;;;;;;26.20;16.20;;;2.60;96.00;;;;;;5030526;28;20424;-73
2022/11/27 00:58:51;;;;;;;30.47;15.57;;;2.70;95.90;;;;;;5029897;28;21114;-74
2022/11/27 01:01:23;;;;;;;27.88;16.83;;;2.70;95.90;;;;;;5030126;28;20467;-73
2022/11/27 01:03:50;;;;;;;29.65;17.23;;;2.70;95.80;;;;;;5032047;28;20224;-74
2022/11/27 01:06:17;;;;;;;33.10;17.10;;;2.60;95.80;;;;;;5032025;28;20209;-73
2022/11/27 01:08:42;;;;;;;27.50;14.57;;;2.60;95.80;;;;;;5031567;28;20781;-73
2022/11/27 01:11:17;;;;;;;29.67;16.03;;;2.60;95.80;;;;;;5034082;28;20456;-73
2022/11/27 01:13:43;;;;;;;25.20;14.47;;;2.70;95.80;;;;;;5036364;28;20206;-73
2022/11/27 01:16:13;;;;;;;29.17;15.60;;;2.70;95.70;;;;;;5035907;28;20451;-74
2022/11/27 01:18:40;;;;;;;27.93;14.53;;;2.70;95.60;;;;;;5035944;28;20424;-74
2022/11/27 01:21:06;;;;;;;25.53;14.03;;;2.60;95.60;;;;;;5033692;28;20470;-74
2022/11/27 01:23:32;;;;;;;29.00;14.93;;;2.70;95.60;;;;;;5032915;28;20416;-74
2022/11/27 01:26:02;;;;;;;25.20;14.47;;;2.60;95.50;;;;;;5039352;28;20957;-73
2022/11/27 01:28:29;;;;;;;28.45;14.88;;;2.60;95.50;;;;;;5039381;28;20454;-73
2022/11/27 01:30:54;;;;;;;27.00;14.67;;;2.60;95.50;;;;;;5035608;28;20583;-74
2022/11/27 01:33:20;;;;;;;23.43;13.93;;;2.70;95.50;;;;;;5030193;28;20477;-73
2022/11/27 01:35:56;;;;;;;28.83;15.40;;;2.70;95.50;;;;;;5031885;28;20254;-74
2022/11/27 01:38:23;;;;;;;26.10;14.77;;;2.70;95.40;;;;;;5029730;28;20177;-74
2022/11/27 01:40:55;;;;;;;26.03;15.00;;;2.70;95.30;;;;;;5029640;28;20217;-74
2022/11/27 01:43:50;;;;;;;24.40;14.30;;;2.60;95.20;;;;;;5031099;28;20431;-73
2022/11/27 01:46:22;;;;;;;32.25;15.65;;;2.70;95.10;;;;;;5027490;28;20518;-74
2022/11/27 01:48:48;;;;;;;26.07;14.13;;;2.70;95.00;;;;;;5030671;28;20556;-72
2022/11/27 01:51:14;;;;;;;26.63;15.70;;;2.60;94.90;;;;;;5027741;28;20456;-73
2022/11/27 01:53:40;;;;;;;31.10;14.73;;;2.60;94.80;;;;;;5030470;28;20427;-73
2022/11/27 01:56:07;;;;;;;29.33;16.70;;;2.50;94.80;;;;;;5031506;28;20177;-74
2022/11/27 01:58:33;;;;;;;24.37;13.73;;;2.50;94.80;;;;;;5026291;28;20435;-73
2022/11/27 02:00:59;;;;;;;21.97;12.97;;;2.50;94.80;;;;;;5029884;28;20463;-74
2022/11/27 02:03:25;;;;;;;26.37;13.30;;;2.50;94.70;;;;;;5030961;28;20435;-73
2022/11/27 02:05:50;;;;;;;29.97;13.90;;;2.50;94.60;;;;;;5031990;28;20427;-73
2022/11/27 02:08:17;;;;;;;27.43;13.17;;;2.40;94.60;;;;;;5033591;28;20300;-73
2022/11/27 02:10:53;;;;;;;26.90;13.40;;;2.40;94.50;;;;;;5026327;28;20577;-73
2022/11/27 02:13:30;;;;;;;28.90;14.87;;;2.40;94.50;;;;;;5030352;28;20518;-73
2022/11/27 02:16:04;;;;;;;28.50;12.67;;;2.40;94.50;;;;;;5025579;28;20973;-74
2022/11/27 02:18:40;;;;;;;27.03;13.67;;;2.40;94.40;;;;;;5031376;28;20428;-75
2022/11/27 02:21:16;;;;;;;27.73;15.30;;;2.40;94.40;;;;;;5028487;28;20842;-74
2022/11/27 02:24:01;;;;;;;22.63;13.20;;;2.40;94.40;;;;;;5030040;28;20419;-74
2022/11/27 02:26:48;;;;;;;25.80;12.52;;;2.30;94.30;;;;;;5030316;28;20212;-73
2022/11/27 02:29:18;;;;;;;25.47;14.30;;;2.30;94.30;;;;;;5025278;28;20624;-73
2022/11/27 02:32:08;;;;;;;19.58;13.30;;;2.20;94.20;;;;;;5028666;28;20447;-73
2022/11/27 02:34:56;;;;;;;23.80;13.73;;;2.20;94.20;;;;;;5029927;28;20208;-74
2022/11/27 02:37:31;;;;;;;23.55;13.50;;;2.20;94.20;;;;;;5024526;28;20428;-73
2022/11/27 02:40:10;;;;;;;22.75;13.68;;;2.10;94.20;;;;;;5028038;28;20226;-72
2022/11/27 02:42:50;;;;;;;21.35;12.40;;;2.10;94.20;;;;;;5028353;28;20648;-74
2022/11/27 02:45:30;;;;;;;27.95;13.45;;;2.10;94.30;;;;;;5029184;28;20212;-74
2022/11/27 02:47:57;;;;;;;26.23;13.75;;;2.00;94.20;;;;;;5029448;28;20287;-74
2022/11/27 02:50:25;;;;;;;21.93;12.67;;;2.00;94.20;;;;;;5028873;28;20577;-75
2022/11/27 02:52:57;;;;;;;22.08;13.48;;;2.10;94.30;;;;;;5028524;28;20412;-72
2022/11/27 02:55:26;;;;;;;24.73;12.68;;;2.10;94.30;;;;;;5031685;28;20235;-74
2022/11/27 02:57:56;;;;;;;24.95;12.63;;;2.00;94.30;;;;;;5029784;28;20793;-74
2022/11/27 03:00:22;;;;;;;30.23;15.73;;;2.00;94.50;;;;;;5023423;28;20221;-73
2022/11/27 03:02:59;;;;;;;24.90;12.53;;;2.00;94.50;;;;;;5029949;28;20192;-73
2022/11/27 03:05:30;;;;;;;25.52;13.45;;;2.00;94.50;;;;;;5025053;28;20420;-75
2022/11/27 03:08:05;;;;;;;25.10;12.32;;;2.00;94.60;;;;;;5023786;28;20208;-74
2022/11/27 03:10:39;;;;;;;21.17;11.98;;;2.00;94.60;;;;;;5034778;28;20215;-73
2022/11/27 03:13:04;;;;;;;21.50;12.37;;;2.00;94.60;;;;;;5048218;28;20182;-73
2022/11/27 03:15:45;;;;;;;24.10;12.50;;;2.10;94.70;;;;;;5048836;28;20439;-73
2022/11/27 03:18:26;;;;;;;22.80;12.73;;;2.00;94.60;;;;;;5050763;28;20169;-72
2022/11/27 03:21:04;;;;;;;23.38;12.95;;;2.00;94.60;;;;;;5050255;28;20543;-74
2022/11/27 03:23:29;;;;;;;22.30;12.90;;;2.00;94.60;;;;;;5026970;28;20827;-72
2022/11/27 03:25:55;;;;;;;25.10;13.50;;;1.90;94.60;;;;;;5030340;28;20470;-75
2022/11/27 03:28:21;;;;;;;20.40;11.20;;;2.00;94.60;;;;;;5029327;28;20212;-75
2022/11/27 03:30:47;;;;;;;19.73;11.77;;;2.00;94.70;;;;;;5027865;28;20205;-74
2022/11/27 03:33:13;;;;;;;30.70;14.00;;;2.00;94.70;;;;;;5028980;28;20197;-74
2022/11/27 03:35:38;;;;;;;25.73;11.73;;;2.00;94.60;;;;;;5030124;28;20273;-73
2022/11/27 03:38:04;;;;;;;37.53;15.07;;;2.00;94.50;;;;;;5029360;28;20435;-73
2022/11/27 03:40:43;;;;;;;27.67;12.80;;;2.00;94.60;;;;;;5027866;28;20644;-74
2022/11/27 03:43:16;;;;;;;21.42;11.30;;;2.00;94.60;;;;;;5029947;28;20431;-73
2022/11/27 03:45:58;;;;;;;23.92;12.10;;;2.00;94.60;;;;;;5045589;28;20207;-73
2022/11/27 03:48:40;;;;;;;21.10;12.10;;;2.00;94.60;;;;;;5054116;28;20189;-74
2022/11/27 03:51:25;;;;;;;22.20;12.30;;;2.00;94.70;;;;;;5048011;28;20281;-73
2022/11/27 03:54:12;;;;;;;24.85;12.20;;;2.00;94.70;;;;;;5051909;28;20430;-74
2022/11/27 03:56:59;;;;;;;19.08;11.00;;;2.00;94.80;;;;;;5049221;28;20178;-73
2022/11/27 03:59:28;;;;;;;26.50;14.00;;;2.00;94.80;;;;;;5054284;28;20186;-74
2022/11/27 04:01:54;;;;;;;24.95;14.32;;;2.00;94.80;;;;;;5048157;28;20185;-75
2022/11/27 04:04:20;;;;;;;28.37;14.50;;;2.00;94.70;;;;;;5035205;28;20609;-73
2022/11/27 04:06:45;;;;;;;24.70;12.60;;;1.90;94.70;;;;;;5031829;28;20225;-74
2022/11/27 04:09:11;;;;;;;28.37;13.87;;;1.90;94.60;;;;;;5032897;28;20185;-73
2022/11/27 04:11:37;;;;;;;23.07;12.03;;;1.90;94.70;;;;;;5030334;28;20185;-74
2022/11/27 04:14:02;;;;;;;23.50;12.43;;;1.80;94.80;;;;;;5031996;28;20192;-74
2022/11/27 04:16:28;;;;;;;23.43;12.83;;;1.90;94.90;;;;;;5032855;28;20185;-73
2022/11/27 04:18:53;;;;;;;22.00;11.67;;;1.90;94.90;;;;;;5032495;28;20232;-74
2022/11/27 04:21:19;;;;;;;21.20;11.93;;;2.00;94.90;;;;;;5029802;28;20634;-74
2022/11/27 04:23:45;;;;;;;21.87;11.40;;;2.00;94.80;;;;;;5030651;28;20199;-74
2022/11/27 04:26:10;;;;;;;21.73;12.60;;;1.90;94.80;;;;;;5032794;28;20738;-74
2022/11/27 04:28:36;;;;;;;26.33;12.50;;;1.90;94.80;;;;;;5032549;28;20184;-74
2022/11/27 04:31:02;;;;;;;21.17;11.70;;;1.90;94.80;;;;;;5025237;28;20209;-73
2022/11/27 04:33:27;;;;;;;21.30;11.70;;;1.90;94.80;;;;;;5027399;28;20576;-73
2022/11/27 04:35:53;;;;;;;27.90;12.83;;;1.90;94.80;;;;;;5032411;28;20174;-74
2022/11/27 04:38:19;;;;;;;22.70;12.27;;;1.90;94.70;;;;;;5032463;28;20278;-75
2022/11/27 04:40:45;;;;;;;24.50;12.75;;;1.90;94.80;;;;;;5030522;28;20275;-75
2022/11/27 04:43:11;;;;;;;26.03;12.53;;;1.90;94.80;;;;;;5030076;28;20659;-73
2022/11/27 04:45:36;;;;;;;21.77;10.57;;;1.90;94.80;;;;;;5031441;28;20205;-74
2022/11/27 04:48:02;;;;;;;18.60;11.10;;;1.90;94.70;;;;;;5025430;28;20657;-73
2022/11/27 04:50:28;;;;;;;20.38;11.05;;;1.90;94.70;;;;;;5028430;28;20212;-74
2022/11/27 04:52:54;;;;;;;24.90;12.80;;;1.80;94.60;;;;;;5032314;28;20242;-75
2022/11/27 04:55:19;;;;;;;27.17;12.67;;;1.80;94.60;;;;;;5032904;28;20424;-74
2022/11/27 04:57:45;;;;;;;22.57;11.60;;;1.70;94.60;;;;;;5026204;28;20197;-74
2022/11/27 05:00:11;;;;;;;26.60;13.10;;;1.70;94.60;;;;;;5034838;28;20217;-75
2022/11/27 05:02:38;;;;;;;21.52;12.30;;;1.70;94.70;;;;;;5036518;28;20189;-73
2022/11/27 05:05:04;;;;;;;23.05;12.60;;;1.70;94.60;;;;;;5034253;28;20211;-74
2022/11/27 05:07:29;;;;;;;23.40;12.23;;;1.60;94.60;;;;;;5040145;28;20218;-73
2022/11/27 05:09:55;;;;;;;25.57;12.60;;;1.60;94.60;;;;;;5039607;28;20464;-74
2022/11/27 05:12:21;;;;;;;23.10;11.77;;;1.60;94.70;;;;;;5031591;28;20564;-74
2022/11/27 05:14:46;;;;;;;32.37;12.53;;;1.60;94.70;;;;;;5032126;28;20209;-73
2022/11/27 05:17:12;;;;;;;25.10;13.37;;;1.60;94.70;;;;;;5031537;28;20436;-72
2022/11/27 05:19:37;;;;;;;30.03;15.30;;;1.60;94.80;;;;;;5030491;28;20216;-73
2022/11/27 05:22:03;;;;;;;29.87;16.20;;;1.50;94.70;;;;;;5030971;28;20212;-73
2022/11/27 05:24:29;;;;;;;30.90;16.53;;;1.50;94.80;;;;;;5032591;28;20188;-73
2022/11/27 05:26:55;;;;;;;35.53;18.07;;;1.40;94.80;;;;;;5031633;28;20209;-73
2022/11/27 05:29:21;;;;;;;28.75;17.20;;;1.30;94.80;;;;;;5030769;28;20234;-73
2022/11/27 05:31:47;;;;;;;28.00;15.60;;;1.20;94.90;;;;;;5031173;28;20664;-72
2022/11/27 05:34:13;;;;;;;35.13;17.13;;;1.20;94.90;;;;;;5035979;28;20420;-72
2022/11/27 05:36:40;;;;;;;30.70;15.60;;;1.30;95.10;;;;;;5034560;28;20185;-73
2022/11/27 05:39:07;;;;;;;26.10;15.53;;;1.30;95.10;;;;;;5034434;28;20200;-74
2022/11/27 05:41:34;;;;;;;26.20;16.55;;;1.30;95.00;;;;;;5032358;28;20554;-73
2022/11/27 05:44:00;;;;;;;32.90;17.35;;;1.20;94.90;;;;;;5032569;28;20567;-73
2022/11/27 05:46:26;;;;;;;33.03;18.10;;;1.10;94.90;;;;;;5035726;28;20714;-74
2022/11/27 05:48:51;;;;;;;25.60;14.97;;;1.20;94.90;;;;;;5031424;28;20572;-74
2022/11/27 05:51:17;;;;;;;30.07;15.73;;;1.20;94.90;;;;;;5030337;28;20209;-74
2022/11/27 05:53:44;;;;;;;31.30;16.37;;;1.10;95.00;;;;;;5032019;28;20737;-74
2022/11/27 05:56:12;;;;;;;29.02;16.05;;;1.10;94.90;;;;;;5035739;28;20439;-73
2022/11/27 05:58:39;;;;;;;29.38;16.35;;;1.10;95.00;;;;;;5037413;28;20272;-73
2022/11/27 06:01:06;;;;;;;27.52;15.05;;;1.10;95.00;;;;;;5035403;28;20263;-75
2022/11/27 06:03:32;;;;;;;32.55;17.30;;;1.00;94.90;;;;;;5032562;28;20656;-75
2022/11/27 06:06:03;;;;;;;25.90;14.30;;;1.10;95.00;;;;;;5032577;28;20186;-76
2022/11/27 06:08:29;;;;;;;24.98;12.30;;;1.10;95.00;;;;;;5031428;28;20700;-73
2022/11/27 06:10:55;;;;;;;16.77;9.93;;;1.10;95.00;;;;;;5029414;28;20251;-74
2022/11/27 06:13:20;;;;;;;24.60;11.77;;;1.10;95.00;;;;;;5030946;28;20209;-73
2022/11/27 06:15:46;;;;;;;21.60;11.60;;;1.10;95.00;;;;;;5034204;28;20211;-75
2022/11/27 06:18:11;;;;;;;21.30;10.77;;;1.10;94.90;;;;;;5032181;28;20656;-75
2022/11/27 06:20:37;;;;;;;16.07;10.33;;;1.10;94.90;;;;;;5034002;28;20217;-74
2022/11/27 06:23:03;;;;;;;21.20;9.43;;;1.20;95.10;;;;;;5039837;28;20193;-74
2022/11/27 06:25:28;;;;;;;28.90;11.77;;;1.30;95.10;;;;;;5037089;28;20189;-75
2022/11/27 06:27:54;;;;;;;17.63;9.40;;;1.30;95.10;;;;;;5030738;28;20209;-75
2022/11/27 06:30:19;;;;;;;27.87;13.10;;;1.20;95.00;;;;;;5028342;28;20383;-74
2022/11/27 06:32:45;;;;;;;32.07;14.60;;;1.20;95.00;;;;;;5030749;28;20189;-75
2022/11/27 06:35:11;;;;;;;26.97;13.77;;;1.20;95.00;;;;;;5032875;28;20181;-74
2022/11/27 06:37:36;;;;;;;25.00;14.30;;;1.20;95.00;;;;;;5039522;28;20251;-73
2022/11/27 06:40:03;;;;;;;26.33;13.10;;;1.20;95.00;;;;;;5036401;28;20227;-74
2022/11/27 06:42:29;;;;;;;22.80;12.27;;;1.20;95.00;;;;;;5038509;28;20263;-74
2022/11/27 06:44:55;;;;;;;27.42;13.57;;;1.20;95.00;;;;;;5040635;28;20271;-75
2022/11/27 06:47:21;;;;;;;21.87;11.07;;;1.30;95.10;;;;;;5040713;28;20250;-76
2022/11/27 06:49:46;;;;;;;24.90;11.30;;;1.30;95.10;;;;;;5037423;28;20597;-75
2022/11/27 06:52:12;;;;;;;21.00;11.30;;;1.20;94.90;;;;;;5031417;28;20185;-73
2022/11/27 06:54:37;;;;;;;23.73;11.93;;;1.30;95.00;;;;;;5031394;28;20196;-74
2022/11/27 06:57:03;;;;;;;22.00;12.80;;;1.30;95.00;;;;;;5030694;28;20188;-75
2022/11/27 06:59:29;;;;;;;28.07;12.20;;;1.30;95.00;;;;;;5023452;28;20829;-75
2022/11/27 07:01:54;;;;;;;21.40;11.73;;;1.40;95.10;;;;;;5029108;28;20197;-74
2022/11/27 07:04:20;;;;;;;21.97;12.10;;;1.40;95.10;;;;;;5023742;28;20193;-74
2022/11/27 07:06:46;;;;;;;24.57;12.03;;;1.40;95.10;;;;;;5029259;28;20963;-73
2022/11/27 07:09:11;;;;;;;25.87;13.37;;;1.40;95.10;;;;;;5028718;28;20268;-75
2022/11/27 07:11:38;;;;;;;22.53;11.60;;;1.40;95.10;;;;;;5028846;28;20311;-75
2022/11/27 07:14:04;;;;;;;19.40;10.13;;;1.40;95.00;;;;;;5029464;28;20711;-74
2022/11/27 07:16:33;;;;;;;17.95;9.85;;;1.50;95.10;;;;;;5029781;28;20235;-74
2022/11/27 07:19:05;;;;;;;14.60;9.00;;;1.60;95.20;;;;;;5027645;28;20192;-74
2022/11/27 07:21:31;;;;;;;25.52;12.43;;;1.70;95.10;;;;;;5030849;28;20482;-74
2022/11/27 07:23:57;;;;;;;23.90;13.10;;;1.70;95.10;;;;;;5033282;28;20185;-72
2022/11/27 07:26:26;;;;;;;34.28;15.27;;;1.60;95.00;;;;;;5033219;28;20435;-74
2022/11/27 07:28:52;;;;;;;27.98;14.68;;;1.60;95.00;;;;;;5033998;28;20192;-73
2022/11/27 07:31:25;;;;;;;27.67;14.18;;;1.50;94.90;;;;;;5032510;28;20850;-76
2022/11/27 07:33:51;;;;;;;31.05;15.52;;;1.60;94.90;;;;;;5032945;28;20193;-74
2022/11/27 07:36:22;;;;;;;30.73;15.95;;;1.70;94.90;;;;;;5038944;28;20228;-73
2022/11/27 07:38:48;;;;;;;25.25;14.40;;;1.50;94.70;;;;;;5039014;28;20679;-75
2022/11/27 07:41:14;;;;;;;26.17;13.25;;;1.50;94.50;;;;;;5032553;28;20220;-75
2022/11/27 07:43:41;;;;;;;22.08;13.10;;;1.50;94.40;;;;;;5028715;28;20831;-74
2022/11/27 07:46:15;;;;;;;25.27;14.32;;;1.50;94.30;;;;;;5032976;28;20231;-74
2022/11/27 07:48:41;;;;;;;24.50;14.10;;;1.50;94.10;;;;;;5022875;28;20193;-73
2022/11/27 07:51:12;;;;;;;21.83;13.77;;;1.50;93.80;;;;;;5032833;28;20205;-74
2022/11/27 07:53:39;;;;;;;23.13;14.00;;;1.70;93.90;;;;;;5034222;28;20185;-73
2022/11/27 07:56:06;;;;;;;28.35;14.93;;;1.80;93.70;;;;;;5037721;28;20564;-74
2022/11/27 07:58:32;;;;;;;24.75;13.80;;;1.80;93.50;;;;;;5031028;28;20202;-74
2022/11/27 08:00:58;;;;;;;22.02;13.43;;;1.70;93.30;;;;;;5032138;28;20201;-74
2022/11/27 08:03:24;;;;;;;30.67;13.73;;;1.70;93.30;;;;;;5033406;28;20196;-73
2022/11/27 08:05:50;;;;;;;24.27;13.93;;;1.70;93.20;;;;;;5036323;28;20213;-73
2022/11/27 08:08:16;;;;;;;23.73;13.67;;;1.70;93.10;;;;;;5031851;28;20476;-73
2022/11/27 08:10:41;;;;;;;26.33;13.40;;;1.70;93.00;;;;;;5030114;28;20986;-73
2022/11/27 08:13:07;;;;;;;23.40;12.87;;;1.70;93.00;;;;;;5038548;28;20247;-74
2022/11/27 08:15:33;;;;;;;24.10;12.97;;;1.80;93.00;;;;;;5038818;28;20200;-73
2022/11/27 08:17:59;;;;;;;21.80;12.95;;;2.00;93.00;;;;;;5035955;28;20197;-74
2022/11/27 08:20:25;;;;;;;26.00;13.90;;;2.10;92.80;;;;;;5031943;28;20216;-73
2022/11/27 08:22:50;;;;;;;24.60;13.77;;;2.00;92.60;;;;;;5032703;28;20193;-74
2022/11/27 08:25:16;;;;;;;22.60;13.90;;;2.00;92.40;;;;;;5036550;28;20464;-74
2022/11/27 08:27:42;;;;;;;25.10;13.70;;;2.00;92.40;;;;;;5028539;28;20698;-73
2022/11/27 08:30:09;;;;;;;23.90;12.80;;;2.00;92.30;;;;;;5035416;28;20452;-73
2022/11/27 08:32:38;;;;;;;22.65;12.40;;;2.00;92.20;;;;;;5032477;28;20415;-75
2022/11/27 08:35:04;;;;;;;27.45;14.15;;;2.00;92.20;;;;;;5032173;28;20269;-74
2022/11/27 08:37:30;;;;;;;21.25;12.77;;;2.20;92.40;;;;;;5033487;28;20199;-74
2022/11/27 08:39:55;;;;;;;20.57;12.73;;;2.30;92.50;;;;;;5029731;28;20727;-72
2022/11/27 08:42:21;;;;;;;22.27;13.83;;;2.50;92.50;;;;;;5031224;28;20193;-73
2022/11/27 08:44:47;;;;;;;25.27;13.30;;;2.60;92.40;;;;;;5031146;28;20614;-74
2022/11/27 08:47:14;;;;;;;22.50;11.93;;;2.60;92.00;;;;;;5033511;28;20463;-73
2022/11/27 08:49:40;;;;;;;24.63;14.07;;;2.50;91.80;;;;;;5031993;28;20571;-75
2022/11/27 08:52:05;;;;;;;22.60;13.20;;;2.60;91.80;;;;;;5033918;28;21135;-75
2022/11/27 08:54:31;;;;;;;28.37;13.10;;;2.80;91.80;;;;;;5033029;28;20173;-73
2022/11/27 08:56:56;;;;;;;23.90;12.83;;;3.00;91.90;;;;;;5032880;28;20196;-72
2022/11/27 08:59:22;;;;;;;18.33;12.57;;;3.10;91.70;;;;;;5031275;28;20268;-74
2022/11/27 09:01:48;;;;;;;22.73;13.90;;;3.10;91.50;;;;;;5030374;28;20189;-73
2022/11/27 09:04:13;;;;;;;24.60;13.40;;;3.30;91.40;;;;;;5032778;28;20193;-70
2022/11/27 09:06:39;;;;;;;23.93;13.37;;;3.40;91.30;;;;;;5036528;28;20264;-72
2022/11/27 09:09:05;;;;;;;20.60;12.90;;;3.50;91.10;;;;;;5037536;28;20197;-73
2022/11/27 09:11:32;;;;;;;21.03;12.43;;;3.60;90.70;;;;;;5027386;28;20509;-72
2022/11/27 09:13:59;;;;;;;20.33;11.90;;;3.70;90.50;;;;;;5035093;28;20188;-71
2022/11/27 09:16:25;;;;;;;22.80;12.40;;;4.10;90.40;;;;;;5043097;28;20415;-71
2022/11/27 09:18:53;;;;;;;19.97;12.70;;;4.30;90.30;;;;;;5042487;28;20529;-71
2022/11/27 09:21:21;;;;;;;23.60;12.40;;;4.20;89.00;;;;;;5042274;28;20216;-72
2022/11/27 09:23:51;;;;;;;20.17;12.10;;;4.10;88.10;;;;;;5037899;28;20422;-72
2022/11/27 09:26:17;;;;;;;21.73;13.33;;;4.10;88.00;;;;;;5040553;28;20420;-71
2022/11/27 09:28:44;;;;;;;20.87;12.30;;;4.20;87.80;;;;;;5039256;28;20416;-73
2022/11/27 09:31:11;;;;;;;22.10;13.57;;;4.20;87.80;;;;;;5037336;28;20491;-72
2022/11/27 09:33:39;;;;;;;21.23;12.00;;;4.30;87.80;;;;;;5038381;28;20926;-71
2022/11/27 09:36:20;;;;;;;23.30;13.57;;;4.40;88.10;;;;;;5035267;28;20420;-72
2022/11/27 09:38:46;;;;;;;21.73;12.00;;;4.50;88.10;;;;;;5037788;28;20431;-75
2022/11/27 09:41:38;;;;;;;21.07;11.27;;;4.60;88.00;;;;;;5037246;28;20452;-74
2022/11/27 09:44:30;;;;;;;18.27;11.97;;;4.60;87.60;;;;;;5032787;28;20408;-74
2022/11/27 09:47:03;;;;;;;20.30;12.70;;;4.50;87.10;;;;;;5036375;28;20474;-74
2022/11/27 09:49:38;;;;;;;20.13;13.20;;;4.60;87.60;;;;;;5035521;28;20507;-74
2022/11/27 09:52:28;;;;;;;21.53;12.77;;;4.60;87.30;;;;;;5032554;28;20502;-73
2022/11/27 09:55:13;;;;;;;18.93;12.33;;;4.50;87.30;;;;;;5035286;28;20420;-73
2022/11/27 09:57:40;;;;;;;24.50;12.30;;;4.60;87.40;;;;;;5034025;28;20433;-75
2022/11/27 10:00:13;;;;;;;30.23;15.33;;;4.50;87.10;;;;;;5038466;28;20479;-72
2022/11/27 10:02:41;;;;;;;28.43;15.23;;;4.30;87.30;;;;;;5035914;28;20431;-73
2022/11/27 10:05:22;;;;;;;21.07;12.97;;;4.20;87.60;;;;;;5035888;28;20446;-73
2022/11/27 10:08:00;;;;;;;17.20;12.10;;;4.20;87.80;;;;;;5033003;28;21013;-75
2022/11/27 10:10:55;;;;;;;21.83;13.47;;;4.40;88.30;;;;;;5026231;28;20460;-74
2022/11/27 10:13:27;;;;;;;22.80;12.67;;;4.40;87.80;;;;;;5027836;28;20477;-73
2022/11/27 10:16:01;;;;;;;21.70;13.23;;;4.40;87.70;;;;;;5031205;28;20412;-73
2022/11/27 10:18:33;;;;;;;23.67;13.27;;;4.50;87.70;;;;;;5027125;28;20415;-74
2022/11/27 10:21:12;;;;;;;18.97;12.53;;;4.50;87.30;;;;;;5021586;28;20462;-74
2022/11/27 10:24:07;;;;;;;23.20;13.10;;;4.40;87.10;;;;;;5028192;28;20450;-72
2022/11/27 10:26:36;;;;;;;23.97;12.97;;;4.40;87.40;;;;;;5029730;28;20489;-74
2022/11/27 10:29:20;;;;;;;23.80;13.43;;;4.30;87.60;;;;;;5031029;28;20474;-73
2022/11/27 10:31:56;;;;;;;23.40;13.00;;;4.40;87.80;;;;;;5026376;28;20447;-74
2022/11/27 10:34:37;;;;;;;22.63;12.80;;;4.50;88.00;;;;;;5030286;28;20419;-74
2022/11/27 10:37:12;;;;;;;21.20;12.60;;;4.50;87.80;;;;;;5028416;28;20423;-73
2022/11/27 10:39:44;;;;;;;19.03;11.00;;;4.60;88.00;;;;;;5025448;28;20443;-74
2022/11/27 10:42:21;;;;;;;20.23;11.37;;;5.00;88.10;;;;;;5029771;28;20794;-74
2022/11/27 10:44:52;;;;;;;20.50;12.30;;;5.40;87.70;;;;;;5031183;28;20918;-75
2022/11/27 10:47:21;;;;;;;18.60;11.57;;;5.80;87.10;;;;;;5030075;28;20474;-77
2022/11/27 10:49:47;;;;;;;23.93;11.83;;;6.30;87.10;;;;;;5029614;28;20448;-73
2022/11/27 10:52:16;;;;;;;19.27;11.77;;;6.80;86.60;;;;;;5033858;28;20988;-73
2022/11/27 10:54:44;;;;;;;19.93;11.83;;;7.10;84.60;;;;;;5030697;28;20617;-73
2022/11/27 10:57:51;;;;;;;17.10;10.83;;;7.20;82.70;;;;;;5027334;28;20439;-76
2022/11/27 11:00:24;;;;;;;17.57;10.80;;;7.30;81.20;;;;;;5031821;28;20459;-73
2022/11/27 11:03:01;;;;;;;20.17;11.10;;;7.20;80.30;;;;;;5032168;28;20434;-73
2022/11/27 11:05:27;;;;;;;16.27;10.60;;;7.20;79.70;;;;;;5032660;28;20519;-75
2022/11/27 11:08:04;;;;;;;16.57;10.73;;;7.20;79.30;;;;;;5031779;28;20456;-73
2022/11/27 11:10:37;;;;;;;20.93;11.23;;;7.30;78.90;;;;;;5027077;28;20465;-73
2022/11/27 11:13:26;;;;;;;16.10;11.00;;;6.90;78.10;;;;;;5028188;28;20420;-72
2022/11/27 11:15:57;;;;;;;18.63;11.60;;;6.70;78.70;;;;;;5028906;28;20424;-73
2022/11/27 11:18:31;;;;;;;22.80;11.10;;;6.60;79.70;;;;;;5030445;28;20420;-73
2022/11/27 11:21:00;;;;;;;17.37;10.23;;;6.50;80.30;;;;;;5027930;28;20529;-74
2022/11/27 11:23:29;;;;;;;17.77;10.70;;;6.60;80.30;;;;;;5028749;28;20431;-75
2022/11/27 11:25:59;;;;;;;16.93;10.90;;;6.50;80.20;;;;;;5030862;28;20424;-76
2022/11/27 11:28:26;;;;;;;17.93;10.60;;;6.60;80.30;;;;;;5030704;28;20469;-74
2022/11/27 11:31:04;;;;;;;20.13;10.80;;;6.70;80.30;;;;;;5023759;28;20488;-73
2022/11/27 11:33:36;;;;;;;15.90;10.60;;;6.60;79.90;;;;;;5025798;28;20432;-73
2022/11/27 11:36:09;;;;;;;16.70;10.10;;;6.60;80.00;;;;;;5023667;28;20993;-74
2022/11/27 11:38:35;;;;;;;16.90;10.20;;;6.70;80.30;;;;;;5030286;28;20502;-73
2022/11/27 11:41:04;;;;;;;16.40;9.70;;;6.80;79.90;;;;;;5026017;28;20559;-75
2022/11/27 11:43:35;;;;;;;17.70;9.23;;;6.80;79.60;;;;;;5028979;28;20434;-73
2022/11/27 11:46:18;;;;;;;19.23;9.47;;;6.80;79.30;;;;;;5031598;28;20448;-75
2022/11/27 11:49:14;;;;;;;15.00;10.00;;;6.90;79.90;;;;;;5031360;28;20519;-73
2022/11/27 11:51:51;;;;;;;13.50;9.17;;;7.00;79.30;;;;;;5030420;28;20455;-76
2022/11/27 11:54:22;;;;;;;16.67;9.90;;;7.00;79.00;;;;;;5033233;28;20412;-74
2022/11/27 11:56:51;;;;;;;14.20;8.40;;;7.10;79.30;;;;;;5029437;28;20426;-73
2022/11/27 11:59:36;;;;;;;14.57;8.10;;;7.20;78.90;;;;;;5028088;28;20408;-74
2022/11/27 12:02:43;;;;;;;17.00;9.10;;;7.50;79.00;;;;;;5026475;28;20957;-73
2022/11/27 12:05:43;;;;;;;12.77;7.57;;;7.60;77.80;;;;;;5045702;28;20968;-75
2022/11/27 12:08:42;;;;;;;9.77;6.77;;;7.60;76.40;;;;;;5033949;28;20462;-73
2022/11/27 12:11:15;;;;;;;9.47;5.70;;;7.80;75.20;;;;;;5013180;28;20466;-74
2022/11/27 12:13:52;;;;;;;8.40;5.60;;;8.00;74.30;;;;;;5042877;28;20428;-75
2022/11/27 12:16:57;;;;;;;8.20;5.63;;;8.20;73.50;;;;;;5045712;28;20412;-74
2022/11/27 12:19:35;;;;;;;7.90;5.47;;;8.20;72.90;;;;;;5041620;28;20424;-73
2022/11/27 12:22:27;;;;;;;10.37;4.40;;;8.30;71.80;;;;;;5035151;28;20431;-74
2022/11/27 12:25:14;;;;;;;7.50;4.70;;;8.30;71.30;;;;;;5031354;28;20440;-73
2022/11/27 12:27:55;;;;;;;10.90;5.17;;;8.50;71.30;;;;;;5033105;28;20471;-75
2022/11/27 12:30:25;;;;;;;6.70;4.87;;;8.60;71.70;;;;;;5023585;28;20484;-74
2022/11/27 12:33:55;;;;;;;6.10;4.90;;;8.70;71.60;;;;;;5031271;28;20420;-73
2022/11/27 12:36:20;;;;;;;7.73;4.33;;;8.70;70.20;;;;;;5002009;28;20458;-75
2022/11/27 12:39:02;;;;;;;6.73;4.40;;;9.00;69.70;;;;;;5017641;28;20428;-75
2022/11/27 12:41:51;;;;;;;5.73;3.83;;;9.10;68.50;;;;;;5027097;28;20671;-74
2022/11/27 12:44:28;;;;;;;7.30;4.03;;;9.30;68.50;;;;;;5023672;28;20436;-74
2022/11/27 12:46:59;;;;;;;6.57;4.80;;;9.40;68.30;;;;;;5028358;28;20477;-74
2022/11/27 12:49:36;;;;;;;9.60;5.40;;;9.30;68.00;;;;;;5040303;28;20427;-75
2022/11/27 12:52:10;;;;;;;7.60;4.77;;;9.10;68.50;;;;;;5028011;28;20423;-73
2022/11/27 12:55:05;;;;;;;6.80;4.57;;;9.10;69.10;;;;;;5031383;28;20435;-73